Terminal Aerodrome Forecast
Issued by NWS

Home | Current Version | Previous Version | Text Only | Print | Product List | Glossary On
Versions: 1 2 3 4 5 6 7 8 9 10 11 12 13 14 15 16 17
000
FTUS43 KDTX 242321
TAFDET
TAF
KDET 242321Z 2500/2524 22006KT P6SM OVC040
     FM250300 22005KT P6SM BKN200
     FM250900 21004KT 4SM BR SCT070 BKN150
     FM251300 24012KT P6SM OVC016
     FM251600 27013G20KT P6SM BKN022
     FM252000 27015G22KT P6SM SKC=

USA.gov is the U.S. government's official web portal to all federal, state and local government web resources and services.